createdAt,value
2022-12-11T00:01:21.724Z,9.47
2022-12-11T00:03:50.277Z,6.27
2022-12-11T00:06:21.113Z,5.33
2022-12-11T00:08:52.304Z,5.57
2022-12-11T00:11:20.873Z,4.37
2022-12-11T00:13:49.491Z,3.90
2022-12-11T00:16:23.812Z,3.73
2022-12-11T00:18:54.940Z,13.23
2022-12-11T00:21:24.180Z,12.57
2022-12-11T00:23:52.547Z,8.40
2022-12-11T00:26:20.914Z,7.53
2022-12-11T00:28:49.577Z,10.50
2022-12-11T00:31:21.400Z,6.83
2022-12-11T00:33:50.720Z,8.57
2022-12-11T00:36:21.576Z,9.80
2022-12-11T00:38:50.381Z,11.07
2022-12-11T00:41:18.992Z,13.23
2022-12-11T00:43:47.643Z,13.97
2022-12-11T00:46:16.390Z,9.47
2022-12-11T00:48:48.759Z,7.67
2022-12-11T00:51:17.605Z,4.67
2022-12-11T00:53:45.817Z,5.90
2022-12-11T00:56:16.945Z,4.23
2022-12-11T00:58:45.668Z,4.03
2022-12-11T01:01:17.210Z,5.37
2022-12-11T01:03:47.296Z,5.43
2022-12-11T01:06:17.564Z,4.47
2022-12-11T01:08:46.609Z,4.73
2022-12-11T01:11:16.067Z,5.23
2022-12-11T01:13:44.756Z,5.60
2022-12-11T01:16:15.177Z,4.13
2022-12-11T01:18:43.837Z,5.93
2022-12-11T01:21:14.808Z,3.60
2022-12-11T01:23:43.093Z,4.87
2022-12-11T01:26:14.589Z,6.13
2022-12-11T01:28:43.479Z,4.03
2022-12-11T01:31:12.846Z,4.27
2022-12-11T01:33:41.481Z,4.33
2022-12-11T01:36:11.252Z,5.40
2022-12-11T01:38:41.312Z,4.93
2022-12-11T01:41:10.477Z,5.30
2022-12-11T01:44:00.407Z,5.90
2022-12-11T01:46:30.289Z,5.50
2022-12-11T01:48:59.249Z,6.10
2022-12-11T01:51:28.421Z,6.57
2022-12-11T01:54:01.889Z,7.30
2022-12-11T01:56:33.610Z,6.00
2022-12-11T01:59:07.312Z,11.17
2022-12-11T02:01:39.835Z,14.27
2022-12-11T02:04:11.103Z,34.40
2022-12-11T02:06:41.582Z,29.73
2022-12-11T02:09:15.132Z,17.67
2022-12-11T02:11:54.475Z,17.00
2022-12-11T02:14:30.298Z,11.80
2022-12-11T02:17:05.984Z,18.73
2022-12-11T02:19:49.781Z,14.47
2022-12-11T02:22:25.888Z,17.03
2022-12-11T02:25:06.284Z,11.67
2022-12-11T02:27:40.201Z,10.70
2022-12-11T02:30:13.995Z,10.70
2022-12-11T02:32:47.652Z,7.43
2022-12-11T02:35:21.355Z,9.47
2022-12-11T02:37:54.590Z,8.63
2022-12-11T02:40:27.645Z,9.57
2022-12-11T02:42:58.825Z,9.73
2022-12-11T02:45:30.301Z,10.97
2022-12-11T02:48:02.784Z,15.37
2022-12-11T02:50:32.242Z,14.57
2022-12-11T02:53:04.373Z,17.57
2022-12-11T02:55:35.052Z,18.83
2022-12-11T02:58:08.931Z,17.63
2022-12-11T03:00:38.681Z,16.13
2022-12-11T03:03:07.316Z,9.60
2022-12-11T03:05:35.593Z,5.93
2022-12-11T03:08:04.376Z,8.03
2022-12-11T03:10:33.130Z,5.33
2022-12-11T03:13:02.262Z,8.03
2022-12-11T03:15:37.720Z,6.90
2022-12-11T03:18:15.321Z,7.03
2022-12-11T03:20:47.608Z,9.57
2022-12-11T03:23:22.396Z,6.63
2022-12-11T03:25:55.474Z,6.70
2022-12-11T03:28:30.741Z,5.20
2022-12-11T03:31:04.046Z,5.53
2022-12-11T03:33:37.857Z,5.23
2022-12-11T03:36:11.093Z,5.00
2022-12-11T03:38:45.512Z,4.13
2022-12-11T03:41:16.132Z,6.10
2022-12-11T03:43:45.765Z,3.97
2022-12-11T03:46:14.962Z,3.00
2022-12-11T03:48:47.911Z,4.83
2022-12-11T03:51:17.953Z,4.83
2022-12-11T03:53:48.126Z,4.77
2022-12-11T03:56:19.117Z,4.13
2022-12-11T03:58:47.574Z,3.50
2022-12-11T04:01:15.772Z,4.20
2022-12-11T04:03:45.480Z,4.33
2022-12-11T04:06:13.727Z,5.20
2022-12-11T04:08:41.990Z,4.27
2022-12-11T04:11:28.772Z,4.43
2022-12-11T04:14:10.930Z,4.23
2022-12-11T04:16:39.443Z,3.43
2022-12-11T04:19:28.422Z,2.87
2022-12-11T04:22:28.961Z,3.00
2022-12-11T04:24:57.268Z,3.97
2022-12-11T04:27:42.070Z,3.33
2022-12-11T04:30:14.374Z,4.20
2022-12-11T04:32:42.723Z,5.67
2022-12-11T04:35:13.696Z,4.20
2022-12-11T04:37:42.291Z,3.57
2022-12-11T04:40:13.562Z,4.50
2022-12-11T04:42:42.362Z,4.70
2022-12-11T04:45:12.579Z,5.57
2022-12-11T04:47:42.641Z,4.23
2022-12-11T04:50:14.377Z,4.83
2022-12-11T04:52:43.218Z,6.97
2022-12-11T04:55:13.554Z,4.17
2022-12-11T04:57:42.363Z,6.00
2022-12-11T05:00:12.712Z,6.20
2022-12-11T05:02:42.767Z,7.40
2022-12-11T05:05:13.416Z,7.93
2022-12-11T05:07:42.245Z,3.97
2022-12-11T05:10:11.067Z,5.40
2022-12-11T05:12:39.836Z,8.43
2022-12-11T05:15:09.629Z,6.03
2022-12-11T05:17:38.474Z,4.60
2022-12-11T05:20:07.759Z,5.63
2022-12-11T05:22:38.481Z,6.00
2022-12-11T05:25:08.432Z,5.10
2022-12-11T05:27:37.506Z,6.23
2022-12-11T05:30:06.841Z,4.87
2022-12-11T05:32:35.265Z,5.33
2022-12-11T05:35:04.022Z,4.57
2022-12-11T05:37:34.608Z,3.83
2022-12-11T05:40:06.393Z,3.87
2022-12-11T05:42:34.760Z,4.87
2022-12-11T05:45:03.046Z,3.37
2022-12-11T05:47:32.403Z,3.80
2022-12-11T05:50:00.707Z,4.20
2022-12-11T05:52:28.907Z,4.53
2022-12-11T05:54:57.209Z,4.43
2022-12-11T05:57:26.889Z,3.30
2022-12-11T05:59:55.169Z,4.83
2022-12-11T06:02:23.602Z,4.07
2022-12-11T06:04:51.899Z,3.47
2022-12-11T06:07:20.116Z,5.10
2022-12-11T06:09:48.382Z,4.37
2022-12-11T06:12:16.638Z,4.00
2022-12-11T06:14:46.362Z,3.87
2022-12-11T06:17:14.648Z,5.33
2022-12-11T06:19:42.885Z,3.67
2022-12-11T06:22:11.106Z,2.97
2022-12-11T06:24:39.669Z,4.40
2022-12-11T06:27:08.299Z,4.87
2022-12-11T06:29:36.630Z,4.13
2022-12-11T06:32:07.109Z,6.70
2022-12-11T06:34:35.397Z,3.63
2022-12-11T06:37:03.563Z,3.13
2022-12-11T06:39:31.899Z,3.57
2022-12-11T06:42:00.117Z,2.20
2022-12-11T06:44:28.664Z,9.10
2022-12-11T06:46:56.844Z,4.20
2022-12-11T06:49:26.642Z,4.57
2022-12-11T06:51:54.804Z,4.50
2022-12-11T06:54:27.168Z,3.93
2022-12-11T06:56:55.545Z,5.23
2022-12-11T06:59:23.753Z,4.30
2022-12-11T07:01:52.180Z,6.30
2022-12-11T07:04:20.424Z,4.40
2022-12-11T07:06:50.060Z,3.27
2022-12-11T07:09:18.529Z,2.93
2022-12-11T07:11:46.909Z,4.43
2022-12-11T07:14:15.123Z,4.03
2022-12-11T07:16:43.537Z,2.70
2022-12-11T07:19:12.242Z,4.63
2022-12-11T07:21:40.599Z,3.03
2022-12-11T07:24:10.866Z,2.30
2022-12-11T07:26:39.647Z,5.07
2022-12-11T07:29:07.964Z,4.33
2022-12-11T07:31:36.364Z,4.37
2022-12-11T07:34:06.753Z,3.00
2022-12-11T07:36:35.682Z,3.40
2022-12-11T07:39:03.999Z,3.00
2022-12-11T07:41:34.154Z,2.67
2022-12-11T07:44:02.801Z,4.37
2022-12-11T07:46:32.606Z,2.90
2022-12-11T07:49:02.053Z,5.83
2022-12-11T07:51:32.285Z,2.93
2022-12-11T07:54:02.596Z,2.63
2022-12-11T07:56:31.573Z,3.60
2022-12-11T07:59:02.497Z,2.67
2022-12-11T08:01:32.716Z,2.90
2022-12-11T08:04:02.868Z,2.43
2022-12-11T08:06:33.012Z,2.97
2022-12-11T08:09:02.942Z,3.20
2022-12-11T08:11:31.291Z,3.20
2022-12-11T08:14:00.455Z,4.10
2022-12-11T08:16:30.754Z,5.23
2022-12-11T08:18:59.924Z,4.23
2022-12-11T08:21:29.443Z,9.10
2022-12-11T08:23:58.156Z,16.33
2022-12-11T08:26:28.459Z,26.10
2022-12-11T08:28:57.535Z,31.60
2022-12-11T08:31:26.415Z,25.23
2022-12-11T08:33:56.920Z,17.53
2022-12-11T08:36:25.720Z,20.87
2022-12-11T08:38:55.737Z,10.97
2022-12-11T08:41:26.316Z,7.47
2022-12-11T08:43:55.370Z,4.97
2022-12-11T08:46:25.339Z,8.43
2022-12-11T08:48:56.299Z,6.47
2022-12-11T08:51:26.581Z,5.13
2022-12-11T08:53:57.386Z,4.80
2022-12-11T08:56:26.516Z,6.30
2022-12-11T08:58:55.276Z,3.90
2022-12-11T09:01:26.657Z,5.17
2022-12-11T09:03:57.738Z,3.47
2022-12-11T09:06:28.309Z,7.00
2022-12-11T09:08:57.410Z,4.90
2022-12-11T09:11:28.623Z,3.50
2022-12-11T09:13:59.855Z,4.50
2022-12-11T09:16:30.639Z,3.57
2022-12-11T09:19:01.199Z,3.27
2022-12-11T09:21:30.967Z,3.93
2022-12-11T09:24:00.739Z,5.80
2022-12-11T09:26:30.164Z,3.77
2022-12-11T09:28:59.096Z,6.10
2022-12-11T09:31:29.417Z,5.30
2022-12-11T09:34:00.907Z,5.57
2022-12-11T09:36:29.715Z,4.83
2022-12-11T09:39:01.523Z,6.33
2022-12-11T09:41:41.711Z,5.43
2022-12-11T09:44:42.641Z,5.43
2022-12-11T09:47:34.172Z,5.27
2022-12-11T09:50:15.061Z,5.43
2022-12-11T09:53:06.664Z,9.13
2022-12-11T09:55:44.369Z,3.23
2022-12-11T09:58:20.073Z,2.43
2022-12-11T10:00:49.823Z,3.40
2022-12-11T10:03:50.578Z,7.93
2022-12-11T10:06:25.177Z,5.00
2022-12-11T10:09:04.669Z,5.33
2022-12-11T10:11:43.881Z,8.67
2022-12-11T10:14:18.545Z,6.20
2022-12-11T10:16:50.105Z,5.40
2022-12-11T10:19:22.514Z,3.40
2022-12-11T10:21:53.740Z,3.57
2022-12-11T10:24:59.353Z,4.50
2022-12-11T10:27:21.303Z,4.37
2022-12-11T10:29:55.284Z,3.73
2022-12-11T10:32:25.979Z,2.23
2022-12-11T10:35:01.358Z,6.03
2022-12-11T10:37:30.965Z,6.10
2022-12-11T10:39:59.189Z,3.33
2022-12-11T10:42:27.619Z,3.80
2022-12-11T10:45:00.892Z,4.33
2022-12-11T10:47:29.214Z,4.10
2022-12-11T10:50:00.605Z,3.53
2022-12-11T10:52:34.537Z,3.97
2022-12-11T10:55:05.349Z,4.13
2022-12-11T10:57:36.547Z,2.70
2022-12-11T11:00:07.406Z,5.30
2022-12-11T11:02:38.647Z,7.67
2022-12-11T11:05:14.524Z,3.40
2022-12-11T11:07:45.459Z,4.27
2022-12-11T11:10:18.883Z,6.80
2022-12-11T11:12:48.986Z,4.70
2022-12-11T11:15:20.319Z,3.47
2022-12-11T11:17:54.878Z,3.83
2022-12-11T11:20:26.940Z,5.07
2022-12-11T11:22:59.028Z,2.90
2022-12-11T11:25:29.907Z,4.23
2022-12-11T11:28:01.792Z,4.07
2022-12-11T11:30:32.631Z,3.93
2022-12-11T11:33:05.749Z,3.90
2022-12-11T11:35:34.404Z,5.93
2022-12-11T11:38:14.475Z,3.00
2022-12-11T11:40:47.886Z,3.03
2022-12-11T11:43:20.663Z,3.53
2022-12-11T11:45:56.886Z,3.40
2022-12-11T11:48:47.084Z,6.73
2022-12-11T11:51:17.908Z,10.03
2022-12-11T11:53:52.660Z,5.90
2022-12-11T11:56:24.992Z,3.07
2022-12-11T11:59:04.758Z,3.43
2022-12-11T12:01:33.627Z,4.67
2022-12-11T12:04:03.985Z,4.07
2022-12-11T12:06:50.552Z,5.43
2022-12-11T12:09:32.267Z,6.17
2022-12-11T12:12:22.834Z,4.90
2022-12-11T12:15:07.927Z,5.37
2022-12-11T12:17:53.436Z,4.83
2022-12-11T12:20:33.478Z,3.87
2022-12-11T12:23:16.070Z,5.93
2022-12-11T12:25:50.344Z,3.77
2022-12-11T12:28:28.625Z,3.37
2022-12-11T12:31:10.551Z,2.93
2022-12-11T12:33:52.454Z,3.47
2022-12-11T12:36:28.906Z,3.77
2022-12-11T12:39:02.716Z,5.90
2022-12-11T12:41:43.901Z,5.80
2022-12-11T12:44:18.408Z,4.53
2022-12-11T12:47:01.154Z,3.20
2022-12-11T12:49:38.458Z,2.83
2022-12-11T12:52:11.588Z,3.60
2022-12-11T12:54:42.095Z,2.73
2022-12-11T12:57:12.052Z,3.03
2022-12-11T12:59:40.292Z,10.77
2022-12-11T13:02:18.128Z,3.70
2022-12-11T13:04:59.484Z,5.77
2022-12-11T13:07:30.908Z,10.97
2022-12-11T13:10:08.274Z,7.80
2022-12-11T13:12:44.939Z,5.40
2022-12-11T13:15:43.771Z,2.90
2022-12-11T13:18:35.990Z,5.60
2022-12-11T13:21:20.822Z,4.57
2022-12-11T13:23:49.087Z,5.00
2022-12-11T13:26:29.180Z,4.00
2022-12-11T13:28:59.339Z,3.97
2022-12-11T13:31:35.317Z,3.23
2022-12-11T13:34:17.871Z,2.77
2022-12-11T13:36:52.350Z,6.10
2022-12-11T13:39:24.027Z,4.33
2022-12-11T13:41:55.941Z,1.80
2022-12-11T13:44:28.421Z,2.20
2022-12-11T13:46:59.895Z,2.20
2022-12-11T13:49:31.307Z,2.27
2022-12-11T13:52:01.222Z,2.33
2022-12-11T13:54:30.775Z,2.13
2022-12-11T13:57:02.254Z,1.97
2022-12-11T13:59:34.998Z,5.07
2022-12-11T14:02:14.611Z,4.37
2022-12-11T14:04:43.506Z,3.47
2022-12-11T14:07:12.936Z,1.90
2022-12-11T14:09:45.448Z,2.33
2022-12-11T14:12:22.022Z,1.60
2022-12-11T14:14:54.710Z,2.73
2022-12-11T14:17:26.478Z,1.67
2022-12-11T14:19:57.143Z,2.40
2022-12-11T14:22:28.061Z,2.73
2022-12-11T14:24:58.473Z,1.50
2022-12-11T14:27:28.340Z,2.33
2022-12-11T14:29:58.194Z,2.67
2022-12-11T14:32:33.542Z,1.80
2022-12-11T14:35:05.730Z,2.23
2022-12-11T14:37:37.142Z,1.63
2022-12-11T14:40:10.231Z,1.53
2022-12-11T14:42:44.637Z,1.40
2022-12-11T14:45:21.416Z,1.93
2022-12-11T14:47:52.130Z,2.27
2022-12-11T14:50:24.738Z,2.20
2022-12-11T14:52:55.252Z,1.60
2022-12-11T14:55:27.317Z,2.13
2022-12-11T14:57:59.236Z,2.50
2022-12-11T15:00:31.574Z,7.03
2022-12-11T15:03:03.324Z,10.20
2022-12-11T15:05:38.795Z,9.73
2022-12-11T15:08:24.868Z,13.23
2022-12-11T15:11:03.400Z,13.83
2022-12-11T15:13:32.237Z,13.63
2022-12-11T15:16:06.329Z,18.73
2022-12-11T15:18:37.878Z,13.80
2022-12-11T15:21:10.075Z,10.43
2022-12-11T15:23:52.003Z,9.33
2022-12-11T15:26:21.143Z,7.13
2022-12-11T15:28:49.450Z,10.23
2022-12-11T15:31:31.384Z,8.07
2022-12-11T15:34:01.000Z,5.17
2022-12-11T15:36:34.826Z,7.33
2022-12-11T15:39:08.703Z,7.27
2022-12-11T15:41:38.012Z,5.77
2022-12-11T15:44:06.658Z,2.63
2022-12-11T15:46:38.358Z,3.30
2022-12-11T15:49:12.611Z,2.90
2022-12-11T15:51:43.283Z,2.97
2022-12-11T15:54:12.001Z,2.63
2022-12-11T15:56:40.560Z,4.37
2022-12-11T15:59:08.944Z,2.10
2022-12-11T16:01:38.672Z,2.27
2022-12-11T16:04:07.300Z,4.47
2022-12-11T16:06:35.708Z,9.13
2022-12-11T16:09:05.243Z,11.97
2022-12-11T16:11:33.765Z,11.93
2022-12-11T16:14:04.604Z,10.93
2022-12-11T16:16:35.273Z,9.10
2022-12-11T16:19:05.322Z,7.00
2022-12-11T16:21:33.640Z,5.80
2022-12-11T16:24:02.014Z,7.10
2022-12-11T16:26:30.449Z,6.30
2022-12-11T16:28:58.767Z,3.77
2022-12-11T16:31:27.145Z,2.77
2022-12-11T16:33:55.534Z,3.03
2022-12-11T16:36:25.332Z,3.53
2022-12-11T16:38:54.460Z,2.20
2022-12-11T16:41:23.966Z,5.77
2022-12-11T16:43:52.622Z,2.07
2022-12-11T16:46:23.631Z,2.83
2022-12-11T16:48:52.017Z,12.93
2022-12-11T16:51:20.316Z,1.83
2022-12-11T16:53:49.962Z,40.40
2022-12-11T16:56:18.236Z,53.43
2022-12-11T16:58:47.704Z,138.43
2022-12-11T17:01:18.133Z,166.80
2022-12-11T17:03:46.529Z,154.43
2022-12-11T17:06:18.102Z,116.63
2022-12-11T17:08:46.674Z,94.33
2022-12-11T17:11:19.171Z,119.63
2022-12-11T17:13:47.724Z,121.93
2022-12-11T17:16:17.766Z,137.33
2022-12-11T17:18:46.093Z,106.13
2022-12-11T17:21:17.687Z,82.93
2022-12-11T17:23:46.158Z,73.37
2022-12-11T17:26:14.700Z,41.23
2022-12-11T17:28:44.582Z,32.07
2022-12-11T17:31:15.064Z,29.07
2022-12-11T17:33:44.223Z,51.30
2022-12-11T17:36:15.233Z,45.60
2022-12-11T17:38:43.627Z,32.70
2022-12-11T17:41:20.020Z,25.27
2022-12-11T17:43:52.012Z,51.90
2022-12-11T17:46:21.393Z,20.47
2022-12-11T17:48:50.050Z,31.87
2022-12-11T17:51:23.968Z,42.53
2022-12-11T17:53:55.410Z,28.57
2022-12-11T17:56:23.925Z,19.13
2022-12-11T17:58:53.685Z,16.07
2022-12-11T18:01:22.127Z,13.57
2022-12-11T18:03:50.415Z,17.13
2022-12-11T18:06:18.814Z,43.23
2022-12-11T18:08:47.761Z,9.83
2022-12-11T18:11:18.572Z,4.70
2022-12-11T18:13:48.159Z,5.93
2022-12-11T18:16:20.960Z,4.93
2022-12-11T18:18:50.465Z,4.17
2022-12-11T18:21:21.534Z,9.10
2022-12-11T18:23:51.569Z,3.87
2022-12-11T18:26:21.578Z,3.80
2022-12-11T18:28:51.288Z,5.57
2022-12-11T18:31:22.062Z,5.93
2022-12-11T18:33:51.977Z,2.80
2022-12-11T18:36:21.441Z,2.07
2022-12-11T18:38:50.239Z,2.33
2022-12-11T18:41:19.994Z,7.73
2022-12-11T18:43:48.404Z,18.10
2022-12-11T18:46:19.404Z,8.07
2022-12-11T18:48:50.238Z,7.23
2022-12-11T18:51:22.727Z,8.37
2022-12-11T18:53:52.136Z,4.70
2022-12-11T18:56:21.903Z,5.37
2022-12-11T18:58:51.793Z,4.33
2022-12-11T19:01:22.466Z,4.20
2022-12-11T19:04:00.654Z,4.03
2022-12-11T19:06:33.320Z,12.97
2022-12-11T19:09:02.656Z,8.53
2022-12-11T19:11:32.372Z,16.10
2022-12-11T19:14:01.316Z,20.93
2022-12-11T19:16:33.628Z,22.00
2022-12-11T19:19:05.393Z,31.90
2022-12-11T19:21:35.564Z,20.97
2022-12-11T19:24:03.895Z,20.00
2022-12-11T19:26:33.483Z,21.70
2022-12-11T19:29:01.831Z,17.30
2022-12-11T19:31:32.784Z,14.60
2022-12-11T19:34:01.693Z,10.17
2022-12-11T19:36:33.718Z,5.57
2022-12-11T19:39:04.286Z,2.97
2022-12-11T19:41:36.727Z,5.83
2022-12-11T19:44:05.300Z,4.00
2022-12-11T19:46:33.682Z,4.53
2022-12-11T19:49:02.759Z,5.73
2022-12-11T19:51:34.646Z,16.27
2022-12-11T19:54:03.767Z,14.60
2022-12-11T19:56:33.150Z,5.70
2022-12-11T19:59:03.495Z,11.37
2022-12-11T20:01:35.135Z,5.40
2022-12-11T20:04:05.101Z,3.83
2022-12-11T20:06:36.767Z,3.67
2022-12-11T20:09:05.809Z,5.00
2022-12-11T20:11:35.055Z,3.97
2022-12-11T20:14:03.436Z,4.20
2022-12-11T20:17:08.738Z,4.67
2022-12-11T20:19:20.457Z,4.57
2022-12-11T20:21:50.239Z,9.07
2022-12-11T20:24:18.476Z,20.57
2022-12-11T20:26:47.281Z,14.73
2022-12-11T20:29:16.274Z,15.10
2022-12-11T20:31:45.628Z,14.97
2022-12-11T20:34:14.609Z,15.43
2022-12-11T20:36:42.986Z,16.03
2022-12-11T20:39:12.728Z,13.50
2022-12-11T20:41:41.015Z,15.23
2022-12-11T20:44:09.324Z,14.23
2022-12-11T20:46:37.666Z,9.87
2022-12-11T20:49:09.937Z,10.30
2022-12-11T20:51:38.297Z,7.43
2022-12-11T20:54:06.683Z,16.10
2022-12-11T20:56:36.646Z,16.67
2022-12-11T20:59:05.440Z,23.50
2022-12-11T21:01:35.075Z,20.20
2022-12-11T21:04:04.700Z,18.33
2022-12-11T21:06:34.583Z,14.83
2022-12-11T21:09:07.266Z,15.43
2022-12-11T21:11:37.214Z,17.43
2022-12-11T21:14:07.789Z,20.33
2022-12-11T21:16:36.657Z,36.10
2022-12-11T21:19:06.867Z,48.27
2022-12-11T21:21:36.902Z,51.27
2022-12-11T21:24:05.733Z,63.97
2022-12-11T21:26:34.428Z,35.90
2022-12-11T21:29:04.137Z,40.07
2022-12-11T21:31:32.506Z,26.03
2022-12-11T21:34:00.795Z,22.43
2022-12-11T21:36:29.252Z,18.67
2022-12-11T21:39:00.374Z,17.80
2022-12-11T21:41:28.848Z,14.80
2022-12-11T21:46:48.044Z,16.53
2022-12-11T21:49:16.507Z,53.23
2022-12-11T21:51:47.397Z,65.33
2022-12-11T21:54:18.105Z,92.60
2022-12-11T21:56:46.676Z,116.50
2022-12-11T21:59:15.114Z,66.07
2022-12-11T22:01:46.063Z,37.57
2022-12-11T22:04:16.779Z,71.23
2022-12-11T22:06:47.383Z,60.17
2022-12-11T22:09:18.557Z,73.77
2022-12-11T22:11:47.860Z,67.97
2022-12-11T22:14:18.046Z,38.93
2022-12-11T22:16:47.028Z,24.27
2022-12-11T22:19:16.832Z,26.50
2022-12-11T22:21:45.261Z,26.93
2022-12-11T22:24:14.202Z,30.97
2022-12-11T22:26:42.570Z,39.97
2022-12-11T22:29:10.895Z,55.27
2022-12-11T22:31:39.279Z,48.00
2022-12-11T22:34:07.470Z,33.40
2022-12-11T22:36:38.497Z,45.27
2022-12-11T22:39:06.885Z,24.47
2022-12-11T22:41:38.406Z,20.07
2022-12-11T22:44:06.678Z,19.83
2022-12-11T22:46:34.912Z,22.23
2022-12-11T22:49:03.163Z,18.97
2022-12-11T22:51:31.479Z,20.77
2022-12-11T22:54:01.786Z,22.60
2022-12-11T22:56:30.077Z,33.40
2022-12-11T22:58:58.721Z,31.17
2022-12-11T23:01:29.854Z,22.60
2022-12-11T23:03:58.163Z,19.57
2022-12-11T23:06:26.688Z,18.97
2022-12-11T23:08:59.579Z,20.20
2022-12-11T23:11:31.684Z,19.93
2022-12-11T23:13:59.951Z,19.63
2022-12-11T23:16:29.161Z,32.63
2022-12-11T23:18:58.702Z,17.20
2022-12-11T23:21:29.338Z,17.33
2022-12-11T23:23:58.174Z,23.40
2022-12-11T23:26:27.735Z,25.77
2022-12-11T23:28:59.615Z,38.47
2022-12-11T23:31:28.760Z,33.57
2022-12-11T23:33:57.518Z,16.50
2022-12-11T23:36:26.881Z,17.57
2022-12-11T23:38:56.837Z,16.60
2022-12-11T23:41:25.174Z,18.17
2022-12-11T23:43:54.423Z,49.30
2022-12-11T23:46:25.816Z,24.00
2022-12-11T23:48:54.827Z,107.13
2022-12-11T23:51:24.951Z,59.77
2022-12-11T23:53:54.089Z,25.50
2022-12-11T23:56:24.383Z,29.97
2022-12-11T23:58:54.081Z,27.57
